Time,TemperatureF,DewpointF,PressureIn,WindDirection,WindDirectionDegrees,WindSpeedMPH,WindSpeedGustMPH,Humidity,HourlyPrecipIn,Conditions,Clouds,dailyrainin,SoftwareType,DateUTC
2013-02-18 00:03:00,50.7,41.0,29.97,North,5,0.0,3.0,69,0.00,,,0.00,meteohub,2013-02-18 08:03:00,
2013-02-18 00:09:00,50.7,41.4,29.97,North,5,0.0,3.0,70,0.00,,,0.00,meteohub,2013-02-18 08:09:00,
2013-02-18 00:14:00,51.1,41.2,29.97,North,5,0.0,3.0,69,0.00,,,0.00,meteohub,2013-02-18 08:14:00,
2013-02-18 00:19:00,51.3,41.4,29.97,North,5,1.0,3.0,69,0.00,,,0.00,meteohub,2013-02-18 08:19:00,
2013-02-18 00:24:00,51.4,41.5,29.97,NE,52,0.0,3.0,69,0.00,,,0.00,meteohub,2013-02-18 08:24:00,
2013-02-18 00:29:00,51.6,41.4,29.97,NE,52,1.0,3.0,68,0.00,,,0.00,meteohub,2013-02-18 08:29:00,
2013-02-18 00:35:00,51.6,41.4,29.97,NE,55,1.0,3.0,68,0.00,,,0.00,meteohub,2013-02-18 08:35:00,
2013-02-18 00:40:00,51.6,41.4,29.97,NE,55,1.0,3.0,68,0.00,,,0.00,meteohub,2013-02-18 08:40:00,
2013-02-18 00:45:00,51.4,41.5,29.97,NE,55,1.0,3.0,69,0.00,,,0.00,meteohub,2013-02-18 08:45:00,
2013-02-18 00:50:00,51.3,41.4,29.97,NE,55,0.0,3.0,69,0.00,,,0.00,meteohub,2013-02-18 08:50:00,
2013-02-18 00:55:00,51.1,41.2,29.97,NE,55,0.0,3.0,69,0.00,,,0.00,meteohub,2013-02-18 08:55:00,
2013-02-18 01:00:00,51.1,41.2,29.97,NE,55,0.0,1.0,69,0.00,,,0.00,meteohub,2013-02-18 09:00:00,
2013-02-18 01:06:00,51.1,41.2,29.98,NE,55,0.0,1.0,69,0.00,,,0.00,meteohub,2013-02-18 09:06:00,
2013-02-18 01:11:00,50.9,41.5,29.97,NE,55,0.0,1.0,70,0.00,,,0.00,meteohub,2013-02-18 09:11:00,
2013-02-18 01:16:00,50.9,41.2,29.97,NE,55,0.0,1.0,69,0.00,,,0.00,meteohub,2013-02-18 09:16:00,
2013-02-18 01:21:00,50.9,41.2,29.98,NE,55,0.0,1.0,69,0.00,,,0.00,meteohub,2013-02-18 09:21:00,
2013-02-18 01:26:00,51.1,41.2,29.98,NE,55,0.0,1.0,69,0.00,,,0.00,meteohub,2013-02-18 09:26:00,
2013-02-18 01:31:00,51.3,41.0,29.98,NE,56,0.0,1.0,68,0.00,,,0.00,meteohub,2013-02-18 09:31:00,
2013-02-18 01:37:00,51.3,41.0,29.98,NE,56,0.0,1.0,68,0.00,,,0.00,meteohub,2013-02-18 09:37:00,
2013-02-18 01:42:00,51.4,41.2,29.98,NE,56,1.0,1.0,68,0.00,,,0.00,meteohub,2013-02-18 09:42:00,
2013-02-18 01:47:00,51.3,41.0,29.98,ENE,63,1.0,2.0,68,0.00,,,0.00,meteohub,2013-02-18 09:47:00,
2013-02-18 01:52:00,51.3,41.0,29.98,ENE,63,0.0,2.0,68,0.00,,,0.00,meteohub,2013-02-18 09:52:00,
2013-02-18 01:57:00,51.3,41.0,29.98,ENE,67,0.0,2.0,68,0.00,,,0.00,meteohub,2013-02-18 09:57:00,
2013-02-18 02:03:00,51.3,41.0,29.97,ENE,67,0.0,2.0,68,0.00,,,0.00,meteohub,2013-02-18 10:03:00,
2013-02-18 02:08:00,51.3,41.0,29.97,ENE,67,1.0,2.0,68,0.00,,,0.00,meteohub,2013-02-18 10:08:00,
2013-02-18 02:13:00,51.1,40.8,29.97,ENE,67,0.0,2.0,68,0.00,,,0.00,meteohub,2013-02-18 10:13:00,
2013-02-18 02:18:00,51.1,41.2,29.97,ENE,67,0.0,2.0,69,0.00,,,0.00,meteohub,2013-02-18 10:18:00,
2013-02-18 02:23:00,51.1,40.8,29.97,ENE,67,0.0,1.0,68,0.00,,,0.00,meteohub,2013-02-18 10:23:00,
2013-02-18 02:28:00,51.1,40.8,29.97,ENE,67,0.0,1.0,68,0.00,,,0.00,meteohub,2013-02-18 10:28:00,
2013-02-18 02:34:00,51.3,41.0,29.97,ENE,67,0.0,1.0,68,0.00,,,0.00,meteohub,2013-02-18 10:34:00,
2013-02-18 02:39:00,51.3,40.6,29.97,ENE,67,0.0,1.0,67,0.00,,,0.00,meteohub,2013-02-18 10:39:00,
2013-02-18 02:44:00,51.1,40.5,29.97,ENE,67,0.0,1.0,67,0.00,,,0.00,meteohub,2013-02-18 10:44:00,
2013-02-18 02:49:00,50.9,40.6,29.97,ENE,67,0.0,1.0,68,0.00,,,0.00,meteohub,2013-02-18 10:49:00,
2013-02-18 02:55:00,50.7,40.5,29.96,ENE,67,0.0,1.0,68,0.00,,,0.00,meteohub,2013-02-18 10:55:00,
2013-02-18 03:02:00,50.7,40.5,29.96,ENE,75,1.0,1.0,68,0.00,,,0.00,meteohub,2013-02-18 11:02:00,
2013-02-18 03:07:00,50.7,40.1,29.96,ENE,76,0.0,1.0,67,0.00,,,0.00,meteohub,2013-02-18 11:07:00,
2013-02-18 03:12:00,50.7,40.1,29.96,ENE,76,0.0,3.0,67,0.00,,,0.00,meteohub,2013-02-18 11:12:00,
2013-02-18 03:18:00,50.5,39.9,29.96,ENE,76,0.0,3.0,67,0.00,,,0.00,meteohub,2013-02-18 11:18:00,
2013-02-18 03:25:00,50.7,40.1,29.95,East,81,0.0,2.0,67,0.00,,,0.00,meteohub,2013-02-18 11:25:00,
2013-02-18 03:31:00,50.5,39.9,29.95,East,85,1.0,2.0,67,0.00,,,0.00,meteohub,2013-02-18 11:31:00,
2013-02-18 03:36:00,50.2,39.6,29.95,East,90,1.0,2.0,67,0.00,,,0.00,meteohub,2013-02-18 11:36:00,
2013-02-18 03:41:00,50.0,39.6,29.95,East,95,1.0,4.0,67,0.00,,,0.00,meteohub,2013-02-18 11:41:00,
2013-02-18 03:49:00,49.8,39.4,29.95,East,95,2.0,4.0,67,0.00,,,0.00,meteohub,2013-02-18 11:49:00,
2013-02-18 03:54:00,50.2,39.6,29.95,East,96,1.0,4.0,67,0.00,,,0.00,meteohub,2013-02-18 11:54:00,
2013-02-18 03:59:00,50.4,39.4,29.95,East,95,2.0,4.0,66,0.00,,,0.00,meteohub,2013-02-18 11:59:00,
2013-02-18 04:04:00,50.5,39.6,29.95,East,95,1.0,3.0,66,0.00,,,0.00,meteohub,2013-02-18 12:04:00,
2013-02-18 04:09:00,50.5,39.6,29.95,East,94,1.0,3.0,66,0.00,,,0.00,meteohub,2013-02-18 12:09:00,
2013-02-18 04:14:00,50.5,39.6,29.95,East,94,0.0,3.0,66,0.00,,,0.00,meteohub,2013-02-18 12:14:00,
2013-02-18 04:20:00,50.5,39.6,29.95,East,95,1.0,3.0,66,0.00,,,0.00,meteohub,2013-02-18 12:20:00,
2013-02-18 04:25:00,50.4,39.4,29.95,East,95,2.0,3.0,66,0.00,,,0.00,meteohub,2013-02-18 12:25:00,
2013-02-18 04:30:00,50.4,39.4,29.95,East,95,1.0,3.0,66,0.00,,,0.00,meteohub,2013-02-18 12:30:00,
2013-02-18 04:35:00,50.2,39.2,29.95,East,95,1.0,3.0,66,0.00,,,0.00,meteohub,2013-02-18 12:35:00,
2013-02-18 04:40:00,50.2,39.2,29.95,East,95,1.0,3.0,66,0.00,,,0.00,meteohub,2013-02-18 12:40:00,
2013-02-18 04:45:00,50.2,39.2,29.95,East,95,1.0,3.0,66,0.00,,,0.00,meteohub,2013-02-18 12:45:00,
2013-02-18 04:51:00,50.4,39.4,29.95,East,95,1.0,3.0,66,0.00,,,0.00,meteohub,2013-02-18 12:51:00,
2013-02-18 04:56:00,50.0,39.0,29.95,East,95,0.0,3.0,66,0.00,,,0.00,meteohub,2013-02-18 12:56:00,
2013-02-18 05:01:00,49.1,38.7,29.95,East,95,0.0,3.0,67,0.00,,,0.00,meteohub,2013-02-18 13:01:00,
2013-02-18 05:06:00,47.7,38.3,29.95,East,95,0.0,1.0,70,0.00,,,0.00,meteohub,2013-02-18 13:06:00,
2013-02-18 05:11:00,46.8,38.3,29.95,East,95,0.0,1.0,72,0.00,,,0.00,meteohub,2013-02-18 13:11:00,
2013-02-18 05:17:00,45.9,38.1,29.95,East,95,0.0,0.0,74,0.00,,,0.00,meteohub,2013-02-18 13:17:00,
2013-02-18 05:22:00,45.3,37.9,29.96,East,95,0.0,0.0,75,0.00,,,0.00,meteohub,2013-02-18 13:22:00,
2013-02-18 05:27:00,45.0,37.9,29.96,East,95,0.0,0.0,76,0.00,,,0.00,meteohub,2013-02-18 13:27:00,
2013-02-18 05:32:00,45.0,38.1,29.95,East,95,0.0,0.0,77,0.00,,,0.00,meteohub,2013-02-18 13:32:00,
2013-02-18 05:40:00,44.8,37.9,29.95,East,95,0.0,0.0,77,0.00,,,0.00,meteohub,2013-02-18 13:40:00,
2013-02-18 05:45:00,44.1,37.6,29.96,East,95,0.0,0.0,78,0.00,,,0.00,meteohub,2013-02-18 13:45:00,
2013-02-18 05:50:00,43.7,37.2,29.96,East,95,0.0,0.0,78,0.00,,,0.00,meteohub,2013-02-18 13:50:00,
2013-02-18 05:57:00,43.2,37.4,29.96,East,95,0.0,0.0,80,0.00,,,0.00,meteohub,2013-02-18 13:57:00,
2013-02-18 06:02:00,43.2,37.4,29.96,East,95,0.0,0.0,80,0.00,,,0.00,meteohub,2013-02-18 14:02:00,
2013-02-18 06:08:00,43.2,37.8,29.96,East,95,0.0,0.0,81,0.00,,,0.00,meteohub,2013-02-18 14:08:00,
2013-02-18 06:15:00,43.3,37.9,29.96,East,95,0.0,0.0,81,0.00,,,0.00,meteohub,2013-02-18 14:15:00,
2013-02-18 06:20:00,44.2,37.8,29.96,East,95,0.0,1.0,78,0.00,,,0.00,meteohub,2013-02-18 14:20:00,
2013-02-18 06:26:00,44.2,37.8,29.96,East,95,0.0,1.0,78,0.00,,,0.00,meteohub,2013-02-18 14:26:00,
2013-02-18 06:32:00,43.9,37.4,29.96,East,95,0.0,1.0,78,0.00,,,0.00,meteohub,2013-02-18 14:32:00,
2013-02-18 06:37:00,44.1,37.9,29.96,East,95,0.0,1.0,79,0.00,,,0.00,meteohub,2013-02-18 14:37:00,
2013-02-18 06:42:00,44.1,37.9,29.96,East,95,0.0,0.0,79,0.00,,,0.00,meteohub,2013-02-18 14:42:00,
2013-02-18 06:47:00,44.2,38.1,29.96,East,95,0.0,0.0,79,0.00,,,0.00,meteohub,2013-02-18 14:47:00,
2013-02-18 06:52:00,44.2,38.1,29.96,East,95,0.0,0.0,79,0.00,,,0.00,meteohub,2013-02-18 14:52:00,
2013-02-18 06:57:00,44.2,38.1,29.97,East,95,0.0,0.0,79,0.00,,,0.00,meteohub,2013-02-18 14:57:00,
2013-02-18 07:02:00,44.2,38.1,29.97,East,95,0.0,0.0,79,0.00,,,0.00,meteohub,2013-02-18 15:02:00,
2013-02-18 07:07:00,44.4,37.9,29.97,East,95,0.0,0.0,78,0.00,,,0.00,meteohub,2013-02-18 15:07:00,
2013-02-18 07:12:00,44.4,37.9,29.97,East,95,0.0,0.0,78,0.00,,,0.00,meteohub,2013-02-18 15:12:00,
2013-02-18 07:18:00,44.4,37.9,29.97,East,95,0.0,0.0,78,0.00,,,0.00,meteohub,2013-02-18 15:18:00,
2013-02-18 07:23:00,44.4,38.3,29.97,East,95,0.0,0.0,79,0.00,,,0.00,meteohub,2013-02-18 15:23:00,
2013-02-18 07:29:00,45.3,38.5,29.97,East,95,0.0,0.0,77,0.00,,,0.00,meteohub,2013-02-18 15:29:00,
2013-02-18 07:34:00,46.0,38.8,29.97,East,95,0.0,0.0,76,0.00,,,0.00,meteohub,2013-02-18 15:34:00,
2013-02-18 07:41:00,46.8,38.8,29.97,East,95,0.0,1.0,74,0.00,,,0.00,meteohub,2013-02-18 15:41:00,
2013-02-18 07:46:00,46.9,39.0,29.97,East,95,0.0,1.0,74,0.00,,,0.00,meteohub,2013-02-18 15:46:00,
2013-02-18 07:52:00,47.1,38.8,29.97,East,95,0.0,0.0,73,0.00,,,0.00,meteohub,2013-02-18 15:52:00,
2013-02-18 07:57:00,47.1,38.8,29.97,East,95,0.0,0.0,73,0.00,,,0.00,meteohub,2013-02-18 15:57:00,
2013-02-18 08:02:00,47.5,39.2,29.97,East,95,0.0,0.0,73,0.00,,,0.00,meteohub,2013-02-18 16:02:00,
2013-02-18 08:07:00,47.7,39.0,29.98,East,95,0.0,0.0,72,0.00,,,0.00,meteohub,2013-02-18 16:07:00,
2013-02-18 08:13:00,47.8,39.2,29.98,East,95,0.0,2.0,72,0.00,,,0.00,meteohub,2013-02-18 16:13:00,
2013-02-18 08:18:00,48.6,39.9,29.99,South,179,4.0,4.0,72,0.00,,,0.00,meteohub,2013-02-18 16:18:00,
2013-02-18 08:23:00,48.7,39.7,29.99,South,188,2.0,4.0,71,0.00,,,0.00,meteohub,2013-02-18 16:23:00,
2013-02-18 08:28:00,48.4,39.0,29.99,SW,227,4.0,4.0,70,0.00,,,0.00,meteohub,2013-02-18 16:28:00,
2013-02-18 08:34:00,47.8,39.2,29.99,SW,225,3.0,4.0,72,0.00,,,0.00,meteohub,2013-02-18 16:34:00,
2013-02-18 08:39:00,47.7,39.7,29.99,SW,221,4.0,9.0,74,0.00,,,0.00,meteohub,2013-02-18 16:39:00,
2013-02-18 08:44:00,47.1,39.6,29.99,SW,220,1.0,7.0,75,0.00,,,0.00,meteohub,2013-02-18 16:44:00,
2013-02-18 08:51:00,47.1,39.9,30.00,SW,220,1.0,7.0,76,0.00,,,0.00,meteohub,2013-02-18 16:51:00,
2013-02-18 08:56:00,47.3,40.5,30.00,SW,220,0.0,7.0,77,0.00,,,0.00,meteohub,2013-02-18 16:56:00,
2013-02-18 09:02:00,47.5,41.0,29.99,SW,220,0.0,4.0,78,0.00,,,0.00,meteohub,2013-02-18 17:02:00,
2013-02-18 09:07:00,47.5,41.4,29.99,SW,220,1.0,4.0,79,0.00,,,0.00,meteohub,2013-02-18 17:07:00,
2013-02-18 09:12:00,47.8,41.7,29.99,SW,220,1.0,3.0,79,0.00,,,0.00,meteohub,2013-02-18 17:12:00,
2013-02-18 09:17:00,48.2,41.7,29.99,SW,220,1.0,3.0,78,0.00,,,0.00,meteohub,2013-02-18 17:17:00,
2013-02-18 09:22:00,48.0,41.5,29.99,SW,220,0.0,3.0,78,0.00,,,0.00,meteohub,2013-02-18 17:22:00,
2013-02-18 09:27:00,47.8,41.7,30.00,SW,220,3.0,3.0,79,0.00,,,0.00,meteohub,2013-02-18 17:27:00,
2013-02-18 09:32:00,47.8,41.7,30.00,SW,220,4.0,5.0,79,0.00,,,0.00,meteohub,2013-02-18 17:32:00,
2013-02-18 09:38:00,48.2,42.1,30.00,SW,220,3.0,5.0,79,0.00,,,0.00,meteohub,2013-02-18 17:38:00,
2013-02-18 09:43:00,48.7,42.4,30.00,SW,220,4.0,5.0,79,0.00,,,0.00,meteohub,2013-02-18 17:43:00,
2013-02-18 09:48:00,48.9,42.4,29.99,SW,220,1.0,4.0,78,0.00,,,0.00,meteohub,2013-02-18 17:48:00,
2013-02-18 09:53:00,48.9,42.6,29.99,SW,220,2.0,4.0,79,0.00,,,0.00,meteohub,2013-02-18 17:53:00,
2013-02-18 10:01:00,49.3,43.0,29.99,SW,220,0.0,5.0,79,0.00,,,0.00,meteohub,2013-02-18 18:01:00,
2013-02-18 10:06:00,49.8,43.0,30.00,SW,219,4.0,5.0,77,0.00,,,0.00,meteohub,2013-02-18 18:06:00,
2013-02-18 10:11:00,49.8,42.3,30.00,SW,217,2.0,6.0,75,0.00,,,0.00,meteohub,2013-02-18 18:11:00,
2013-02-18 10:16:00,50.0,42.8,30.00,SW,217,3.0,6.0,76,0.00,,,0.00,meteohub,2013-02-18 18:16:00,
2013-02-18 10:22:00,50.2,43.0,30.00,SW,217,1.0,6.0,76,0.00,,,0.00,meteohub,2013-02-18 18:22:00,
2013-02-18 10:27:00,50.5,43.3,30.00,SW,217,4.0,6.0,76,0.00,,,0.00,meteohub,2013-02-18 18:27:00,
2013-02-18 10:32:00,50.7,43.5,30.00,SW,217,1.0,5.0,76,0.00,,,0.00,meteohub,2013-02-18 18:32:00,
2013-02-18 10:37:00,51.1,43.2,30.00,SW,217,3.0,5.0,74,0.00,,,0.00,meteohub,2013-02-18 18:37:00,
2013-02-18 10:42:00,51.3,43.3,29.99,SW,216,2.0,5.0,74,0.00,,,0.00,meteohub,2013-02-18 18:42:00,
2013-02-18 10:47:00,52.0,43.9,30.00,SW,215,5.0,5.0,74,0.00,,,0.00,meteohub,2013-02-18 18:47:00,
2013-02-18 10:53:00,52.0,43.5,29.99,SSW,209,3.0,5.0,73,0.00,,,0.00,meteohub,2013-02-18 18:53:00,
2013-02-18 10:58:00,52.3,43.5,30.00,SSW,210,4.0,9.0,72,0.00,,,0.00,meteohub,2013-02-18 18:58:00,
2013-02-18 11:03:00,52.3,43.5,30.00,SW,215,2.0,9.0,72,0.00,,,0.00,meteohub,2013-02-18 19:03:00,
2013-02-18 11:11:00,52.3,43.9,29.99,SSW,210,4.0,9.0,73,0.00,,,0.00,meteohub,2013-02-18 19:11:00,
2013-02-18 11:16:00,52.3,43.5,29.99,South,180,7.0,9.0,72,0.00,,,0.00,meteohub,2013-02-18 19:16:00,
2013-02-18 11:21:00,52.3,43.9,29.99,SSW,192,7.0,10.0,73,0.00,,,0.00,meteohub,2013-02-18 19:21:00,
2013-02-18 11:27:00,52.9,44.1,29.99,SSW,200,2.0,10.0,72,0.00,,,0.00,meteohub,2013-02-18 19:27:00,
2013-02-18 11:34:00,53.4,43.5,29.98,SSW,198,9.0,10.0,69,0.00,,,0.00,meteohub,2013-02-18 19:34:00,
2013-02-18 11:39:00,53.1,43.9,29.98,SSW,206,6.0,13.0,71,0.00,,,0.00,meteohub,2013-02-18 19:39:00,
2013-02-18 11:45:00,53.4,44.2,29.98,South,188,1.0,13.0,71,0.00,,,0.00,meteohub,2013-02-18 19:45:00,
2013-02-18 11:50:00,54.1,44.2,29.98,SSW,209,2.0,13.0,69,0.00,,,0.00,meteohub,2013-02-18 19:50:00,
2013-02-18 11:57:00,54.5,43.7,29.97,SSW,202,7.0,13.0,67,0.00,,,0.00,meteohub,2013-02-18 19:57:00,
2013-02-18 12:02:00,54.1,44.2,29.97,SSW,196,1.0,13.0,69,0.00,,,0.00,meteohub,2013-02-18 20:02:00,
2013-02-18 12:08:00,54.3,43.5,29.97,SSW,209,3.0,11.0,67,0.00,,,0.00,meteohub,2013-02-18 20:08:00,
2013-02-18 12:13:00,54.5,43.7,29.97,SSW,195,7.0,11.0,67,0.00,,,0.00,meteohub,2013-02-18 20:13:00,
2013-02-18 12:21:00,54.9,44.1,29.96,South,185,1.0,11.0,67,0.00,,,0.00,meteohub,2013-02-18 20:21:00,
2013-02-18 12:26:00,55.0,43.9,29.96,SSW,196,7.0,11.0,66,0.00,,,0.00,meteohub,2013-02-18 20:26:00,
2013-02-18 12:31:00,55.0,44.2,29.95,SSW,209,4.0,12.0,67,0.00,,,0.00,meteohub,2013-02-18 20:31:00,
2013-02-18 12:36:00,55.4,43.3,29.95,SSW,193,3.0,12.0,64,0.00,,,0.00,meteohub,2013-02-18 20:36:00,
2013-02-18 12:44:00,55.2,43.3,29.95,South,179,2.0,12.0,64,0.00,,,0.00,meteohub,2013-02-18 20:44:00,
2013-02-18 12:49:00,55.6,44.4,29.95,SW,232,7.0,12.0,66,0.00,,,0.00,meteohub,2013-02-18 20:49:00,
2013-02-18 12:54:00,56.1,44.1,29.95,SW,214,12.0,12.0,64,0.00,,,0.00,meteohub,2013-02-18 20:54:00,
2013-02-18 13:00:00,56.7,44.2,29.95,SSW,206,11.0,16.0,63,0.00,,,0.00,meteohub,2013-02-18 21:00:00,
2013-02-18 13:07:00,56.7,43.7,29.95,SW,220,9.0,16.0,62,0.00,,,0.00,meteohub,2013-02-18 21:07:00,
2013-02-18 13:12:00,56.5,44.1,29.94,SW,218,1.0,16.0,63,0.00,,,0.00,meteohub,2013-02-18 21:12:00,
2013-02-18 13:18:00,56.7,44.6,29.94,SSW,196,2.0,13.0,64,0.00,,,0.00,meteohub,2013-02-18 21:18:00,
2013-02-18 13:23:00,55.9,44.4,29.94,SSW,197,2.0,13.0,65,0.00,,,0.00,meteohub,2013-02-18 21:23:00,
2013-02-18 13:30:00,56.5,44.4,29.94,SW,220,5.0,14.0,64,0.00,,,0.00,meteohub,2013-02-18 21:30:00,
2013-02-18 13:36:00,56.7,44.6,29.94,SSE,161,5.0,14.0,64,0.00,,,0.00,meteohub,2013-02-18 21:36:00,
2013-02-18 13:41:00,56.5,44.4,29.93,South,190,4.0,14.0,64,0.00,,,0.00,meteohub,2013-02-18 21:41:00,
2013-02-18 13:46:00,56.1,44.6,29.92,South,169,9.0,12.0,65,0.00,,,0.00,meteohub,2013-02-18 21:46:00,
2013-02-18 13:54:00,56.1,45.0,29.92,South,183,7.0,12.0,66,0.00,,,0.00,meteohub,2013-02-18 21:54:00,
2013-02-18 13:59:00,56.1,45.0,29.92,South,185,10.0,12.0,66,0.00,,,0.00,meteohub,2013-02-18 21:59:00,
2013-02-18 14:05:00,56.1,45.0,29.91,South,185,3.0,14.0,66,0.00,,,0.00,meteohub,2013-02-18 22:05:00,
2013-02-18 14:10:00,56.8,45.1,29.91,South,183,7.0,17.0,65,0.00,,,0.00,meteohub,2013-02-18 22:10:00,
2013-02-18 14:17:00,57.2,44.2,29.91,SSW,200,10.0,17.0,62,0.00,,,0.00,meteohub,2013-02-18 22:17:00,
2013-02-18 14:22:00,57.0,44.6,29.91,South,190,7.0,17.0,63,0.00,,,0.00,meteohub,2013-02-18 22:22:00,
2013-02-18 14:29:00,57.0,44.6,29.91,SSW,192,0.0,15.0,63,0.00,,,0.00,meteohub,2013-02-18 22:29:00,
2013-02-18 14:34:00,57.2,44.2,29.90,South,185,10.0,15.0,62,0.00,,,0.00,meteohub,2013-02-18 22:34:00,
2013-02-18 14:40:00,57.6,44.6,29.90,SSW,193,11.0,15.0,62,0.00,,,0.00,meteohub,2013-02-18 22:40:00,
2013-02-18 14:46:00,57.0,44.6,29.90,South,171,6.0,17.0,63,0.00,,,0.00,meteohub,2013-02-18 22:46:00,
2013-02-18 14:51:00,57.0,44.6,29.89,SSW,211,5.0,17.0,63,0.00,,,0.00,meteohub,2013-02-18 22:51:00,
2013-02-18 14:56:00,57.0,44.1,29.90,SSE,167,3.0,17.0,62,0.00,,,0.00,meteohub,2013-02-18 22:56:00,
2013-02-18 15:04:00,57.6,45.1,29.90,SSW,194,8.0,17.0,63,0.00,,,0.00,meteohub,2013-02-18 23:04:00,
2013-02-18 15:09:00,57.7,44.8,29.90,SW,226,13.0,14.0,62,0.00,,,0.00,meteohub,2013-02-18 23:09:00,
2013-02-18 15:14:00,57.7,44.8,29.90,SW,224,13.0,14.0,62,0.00,,,0.00,meteohub,2013-02-18 23:14:00,
2013-02-18 15:19:00,57.6,45.1,29.90,SW,218,14.0,16.0,63,0.00,,,0.00,meteohub,2013-02-18 23:19:00,
2013-02-18 15:27:00,56.5,44.8,29.90,SSW,207,5.0,16.0,65,0.00,,,0.00,meteohub,2013-02-18 23:27:00,
2013-02-18 15:32:00,55.9,44.4,29.90,SSW,200,9.0,16.0,65,0.00,,,0.00,meteohub,2013-02-18 23:32:00,
2013-02-18 15:37:00,55.6,44.1,29.89,SW,223,12.0,17.0,65,0.00,,,0.00,meteohub,2013-02-18 23:37:00,
2013-02-18 15:43:00,55.2,44.1,29.89,SW,217,3.0,17.0,66,0.00,,,0.00,meteohub,2013-02-18 23:43:00,
2013-02-18 15:50:00,55.0,43.5,29.89,SSW,210,11.0,18.0,65,0.00,,,0.00,meteohub,2013-02-18 23:50:00,
2013-02-18 15:56:00,54.9,43.7,29.89,SSW,210,4.0,18.0,66,0.00,,,0.00,meteohub,2013-02-18 23:56:00,
2013-02-18 16:01:00,54.3,43.2,29.89,SW,215,11.0,17.0,66,0.00,,,0.00,meteohub,2013-02-19 00:01:00,
2013-02-18 16:06:00,54.1,43.0,29.89,WSW,237,13.0,19.0,66,0.00,,,0.00,meteohub,2013-02-19 00:06:00,
2013-02-18 16:13:00,53.6,42.4,29.90,SW,220,8.0,19.0,66,0.00,,,0.00,meteohub,2013-02-19 00:13:00,
2013-02-18 16:19:00,53.4,41.9,29.90,SW,229,13.0,19.0,65,0.00,,,0.00,meteohub,2013-02-19 00:19:00,
2013-02-18 16:24:00,52.5,41.5,29.90,SSW,198,9.0,19.0,66,0.00,,,0.00,meteohub,2013-02-19 00:24:00,
2013-02-18 16:32:00,52.2,41.5,29.90,WSW,248,1.0,19.0,67,0.00,,,0.00,meteohub,2013-02-19 00:32:00,
2013-02-18 16:37:00,52.0,41.4,29.90,SW,218,11.0,19.0,67,0.00,,,0.00,meteohub,2013-02-19 00:37:00,
2013-02-18 16:44:00,51.8,41.2,29.90,SW,233,8.0,19.0,67,0.00,,,0.00,meteohub,2013-02-19 00:44:00,
2013-02-18 16:50:00,51.4,40.8,29.90,SW,233,11.0,15.0,67,0.00,,,0.00,meteohub,2013-02-19 00:50:00,
2013-02-18 16:55:00,50.9,40.3,29.90,WSW,241,19.0,19.0,67,0.00,,,0.00,meteohub,2013-02-19 00:55:00,
2013-02-18 17:00:00,50.5,39.9,29.90,SW,234,7.0,17.0,67,0.00,,,0.00,meteohub,2013-02-19 01:00:00,
2013-02-18 17:06:00,50.5,39.9,29.90,WSW,249,11.0,17.0,67,0.00,,,0.00,meteohub,2013-02-19 01:06:00,
2013-02-18 17:11:00,50.4,39.7,29.91,SW,217,10.0,20.0,67,0.00,,,0.00,meteohub,2013-02-19 01:11:00,
2013-02-18 17:16:00,50.2,39.6,29.91,WSW,238,11.0,18.0,67,0.00,,,0.00,meteohub,2013-02-19 01:16:00,
2013-02-18 17:23:00,50.0,39.9,29.91,SSW,212,5.0,18.0,68,0.00,,,0.00,meteohub,2013-02-19 01:23:00,
2013-02-18 17:29:00,49.8,39.7,29.91,SW,226,6.0,18.0,68,0.00,,,0.00,meteohub,2013-02-19 01:29:00,
2013-02-18 17:34:00,49.8,39.7,29.91,SSW,212,2.0,14.0,68,0.00,,,0.00,meteohub,2013-02-19 01:34:00,
2013-02-18 17:39:00,49.6,39.6,29.92,SSW,211,2.0,15.0,68,0.00,,,0.00,meteohub,2013-02-19 01:39:00,
2013-02-18 17:46:00,49.5,39.4,29.92,SW,221,3.0,15.0,68,0.00,,,0.00,meteohub,2013-02-19 01:46:00,
2013-02-18 17:52:00,49.3,39.2,29.92,SSW,200,5.0,15.0,68,0.00,,,0.00,meteohub,2013-02-19 01:52:00,
2013-02-18 17:57:00,48.9,39.2,29.92,SW,214,5.0,15.0,69,0.00,,,0.00,meteohub,2013-02-19 01:57:00,
2013-02-18 18:02:00,48.7,39.0,29.92,SSW,205,10.0,15.0,69,0.00,,,0.00,meteohub,2013-02-19 02:02:00,
2013-02-18 18:07:00,48.6,39.2,29.93,SSW,198,3.0,15.0,70,0.00,,,0.00,meteohub,2013-02-19 02:07:00,
2013-02-18 18:12:00,48.6,39.2,29.93,SSW,197,5.0,15.0,70,0.00,,,0.00,meteohub,2013-02-19 02:12:00,
2013-02-18 18:18:00,48.4,39.4,29.92,SSW,208,0.0,16.0,71,0.00,,,0.00,meteohub,2013-02-19 02:18:00,
2013-02-18 18:26:00,48.4,39.4,29.92,South,189,5.0,16.0,71,0.00,,,0.00,meteohub,2013-02-19 02:26:00,
2013-02-18 18:33:00,47.8,39.2,29.93,SSW,192,1.0,11.0,72,0.00,,,0.00,meteohub,2013-02-19 02:33:00,
2013-02-18 18:42:00,47.7,39.0,29.93,South,185,4.0,7.0,72,0.00,,,0.00,meteohub,2013-02-19 02:42:00,
2013-02-18 18:47:00,47.7,39.0,29.94,South,179,5.0,7.0,72,0.00,,,0.00,meteohub,2013-02-19 02:47:00,
2013-02-18 18:52:00,47.7,39.0,29.94,South,184,5.0,13.0,72,0.00,,,0.00,meteohub,2013-02-19 02:52:00,
2013-02-18 18:57:00,47.5,38.8,29.94,SSW,192,4.0,13.0,72,0.00,,,0.00,meteohub,2013-02-19 02:57:00,
2013-02-18 19:03:00,47.5,39.2,29.94,SSW,208,4.0,13.0,73,0.00,,,0.00,meteohub,2013-02-19 03:03:00,
2013-02-18 19:08:00,47.5,38.8,29.94,SSW,196,4.0,14.0,72,0.00,,,0.00,meteohub,2013-02-19 03:08:00,
2013-02-18 19:13:00,47.1,38.8,29.94,South,184,2.0,14.0,73,0.00,,,0.00,meteohub,2013-02-19 03:13:00,
2013-02-18 19:19:00,47.1,38.8,29.94,South,183,2.0,9.0,73,0.00,,,0.00,meteohub,2013-02-19 03:19:00,
2013-02-18 19:25:00,47.1,38.5,29.94,South,181,6.0,6.0,72,0.00,,,0.00,meteohub,2013-02-19 03:25:00,
2013-02-18 19:30:00,46.9,38.7,29.94,South,186,1.0,5.0,73,0.00,,,0.00,meteohub,2013-02-19 03:30:00,
2013-02-18 19:35:00,46.8,38.5,29.94,South,182,4.0,10.0,73,0.00,,,0.00,meteohub,2013-02-19 03:35:00,
2013-02-18 19:43:00,46.6,38.5,29.93,South,180,4.0,10.0,73,0.00,,,0.00,meteohub,2013-02-19 03:43:00,
2013-02-18 19:48:00,46.6,38.5,29.93,South,189,8.0,10.0,73,0.00,,,0.00,meteohub,2013-02-19 03:48:00,
2013-02-18 19:53:00,46.6,38.7,29.93,South,179,3.0,10.0,74,0.00,,,0.00,meteohub,2013-02-19 03:53:00,
2013-02-18 19:59:00,46.6,38.7,29.93,South,177,0.0,12.0,74,0.00,,,0.00,meteohub,2013-02-19 03:59:00,
2013-02-18 20:06:00,46.4,38.5,29.93,South,173,4.0,12.0,74,0.00,,,0.00,meteohub,2013-02-19 04:06:00,
2013-02-18 20:12:00,46.2,38.7,29.94,SSW,196,0.0,12.0,75,0.00,,,0.00,meteohub,2013-02-19 04:12:00,
2013-02-18 20:17:00,46.0,38.5,29.94,South,188,0.0,13.0,75,0.00,,,0.00,meteohub,2013-02-19 04:17:00,
2013-02-18 20:22:00,46.0,38.5,29.93,South,169,0.0,13.0,75,0.00,,,0.00,meteohub,2013-02-19 04:22:00,
2013-02-18 20:27:00,45.9,38.3,29.93,South,184,0.0,9.0,75,0.00,,,0.00,meteohub,2013-02-19 04:27:00,
2013-02-18 20:32:00,45.9,38.7,29.93,South,183,4.0,9.0,76,0.00,,,0.00,meteohub,2013-02-19 04:32:00,
2013-02-18 20:37:00,45.9,38.3,29.94,South,173,0.0,5.0,75,0.00,,,0.00,meteohub,2013-02-19 04:37:00,
2013-02-18 20:42:00,45.9,38.3,29.94,South,173,0.0,5.0,75,0.00,,,0.00,meteohub,2013-02-19 04:42:00,
2013-02-18 20:47:00,45.9,38.3,29.94,SE,139,0.0,5.0,75,0.00,,,0.00,meteohub,2013-02-19 04:47:00,
2013-02-18 20:53:00,45.9,38.3,29.94,SSE,166,0.0,5.0,75,0.00,,,0.00,meteohub,2013-02-19 04:53:00,
2013-02-18 20:58:00,45.9,38.1,29.93,SSE,166,0.0,5.0,74,0.00,,,0.00,meteohub,2013-02-19 04:58:00,
2013-02-18 21:00:00,45.7,37.9,29.94,SSE,165,1.0,7.0,74,0.00,,,0.00,meteohub,2013-02-19 05:00:00,
2013-02-18 21:01:00,45.9,38.1,29.94,SSE,164,0.0,7.0,74,0.00,,,0.00,meteohub,2013-02-19 05:01:00,
2013-02-18 21:03:00,45.9,38.1,29.94,SSE,164,0.0,7.0,74,0.00,,,0.00,meteohub,2013-02-19 05:03:00,
2013-02-18 21:08:00,45.7,37.9,29.94,SSE,164,0.0,7.0,74,0.00,,,0.00,meteohub,2013-02-19 05:08:00,
2013-02-18 21:16:00,45.7,37.9,29.94,SSE,164,0.0,4.0,74,0.00,,,0.00,meteohub,2013-02-19 05:16:00,
2013-02-18 21:21:00,45.7,38.3,29.94,SSE,165,0.0,4.0,75,0.00,,,0.00,meteohub,2013-02-19 05:21:00,
2013-02-18 21:26:00,45.7,38.3,29.94,SSW,192,1.0,4.0,75,0.00,,,0.00,meteohub,2013-02-19 05:26:00,
2013-02-18 21:32:00,45.7,38.3,29.94,SSE,150,0.0,4.0,75,0.00,,,0.00,meteohub,2013-02-19 05:32:00,
2013-02-18 21:37:00,45.7,38.3,29.94,SSE,149,0.0,7.0,75,0.00,,,0.00,meteohub,2013-02-19 05:37:00,
2013-02-18 21:42:00,45.7,38.3,29.94,SSE,152,0.0,7.0,75,0.00,,,0.00,meteohub,2013-02-19 05:42:00,
2013-02-18 21:47:00,45.5,38.1,29.94,SSE,154,0.0,5.0,75,0.00,,,0.00,meteohub,2013-02-19 05:47:00,
2013-02-18 21:52:00,45.3,37.9,29.94,SSE,151,0.0,5.0,75,0.00,,,0.00,meteohub,2013-02-19 05:52:00,
2013-02-18 21:57:00,45.3,38.1,29.93,South,181,3.0,5.0,76,0.00,,,0.00,meteohub,2013-02-19 05:57:00,
2013-02-18 22:02:00,45.3,38.1,29.93,ESE,120,0.0,5.0,76,0.00,,,0.00,meteohub,2013-02-19 06:02:00,
2013-02-18 22:08:00,45.1,37.9,29.93,SSW,196,0.0,5.0,76,0.00,,,0.00,meteohub,2013-02-19 06:08:00,
2013-02-18 22:13:00,45.1,37.9,29.93,SSE,151,1.0,6.0,76,0.00,,,0.00,meteohub,2013-02-19 06:13:00,
2013-02-18 22:18:00,45.1,38.3,29.93,South,186,1.0,6.0,77,0.00,,,0.00,meteohub,2013-02-19 06:18:00,
2013-02-18 22:23:00,45.1,37.9,29.94,South,176,5.0,7.0,76,0.00,,,0.00,meteohub,2013-02-19 06:23:00,
2013-02-18 22:28:00,45.3,38.1,29.94,South,191,1.0,7.0,76,0.00,,,0.00,meteohub,2013-02-19 06:28:00,
2013-02-18 22:34:00,45.3,38.5,29.94,South,186,0.0,7.0,77,0.00,,,0.00,meteohub,2013-02-19 06:34:00,
2013-02-18 22:39:00,45.3,38.1,29.93,SSE,167,2.0,13.0,76,0.00,,,0.00,meteohub,2013-02-19 06:39:00,
2013-02-18 22:44:00,45.3,38.5,29.94,SSW,192,10.0,13.0,77,0.00,,,0.00,meteohub,2013-02-19 06:44:00,
2013-02-18 22:49:00,45.3,38.1,29.94,SSE,152,10.0,13.0,76,0.00,,,0.00,meteohub,2013-02-19 06:49:00,
2013-02-18 22:55:00,45.5,38.7,29.93,SSE,149,3.0,15.0,77,0.00,,,0.00,meteohub,2013-02-19 06:55:00,
2013-02-18 23:00:00,45.7,38.8,29.93,South,175,18.0,18.0,77,0.00,,,0.00,meteohub,2013-02-19 07:00:00,
2013-02-18 23:05:00,45.7,38.8,29.93,South,187,12.0,18.0,77,0.00,,,0.00,meteohub,2013-02-19 07:05:00,
2013-02-18 23:12:00,45.5,38.7,29.93,South,190,4.0,18.0,77,0.00,,,0.00,meteohub,2013-02-19 07:12:00,
2013-02-18 23:17:00,45.5,38.7,29.92,South,177,15.0,18.0,77,0.00,,,0.00,meteohub,2013-02-19 07:17:00,
2013-02-18 23:23:00,45.5,38.7,29.92,SSW,205,5.0,19.0,77,0.00,,,0.00,meteohub,2013-02-19 07:23:00,
2013-02-18 23:28:00,45.5,38.7,29.92,South,172,1.0,19.0,77,0.00,,,0.00,meteohub,2013-02-19 07:28:00,
2013-02-18 23:33:00,45.3,38.5,29.92,South,188,15.0,15.0,77,0.00,,,0.00,meteohub,2013-02-19 07:33:00,
2013-02-18 23:38:00,45.3,38.5,29.92,South,189,4.0,15.0,77,0.00,,,0.00,meteohub,2013-02-19 07:38:00,
2013-02-18 23:43:00,45.1,38.7,29.93,SSE,163,6.0,18.0,78,0.00,,,0.00,meteohub,2013-02-19 07:43:00,
2013-02-18 23:49:00,45.1,38.3,29.93,South,181,5.0,18.0,77,0.00,,,0.00,meteohub,2013-02-19 07:49:00,
2013-02-18 23:54:00,45.1,38.3,29.92,South,177,3.0,18.0,77,0.00,,,0.00,meteohub,2013-02-19 07:54:00,
2013-02-18 23:59:00,45.1,38.7,29.92,SSW,196,9.0,18.0,78,0.00,,,0.00,meteohub,2013-02-19 07:59:00,